createdAt,value
2023-12-28T04:29:11.392Z,0.22
2023-12-28T04:53:48.973Z,1.67
2023-12-28T04:56:19.968Z,2.60
2023-12-28T04:58:47.750Z,2.17
2023-12-28T05:01:14.747Z,1.60
2023-12-28T05:03:41.782Z,1.35
2023-12-28T05:08:35.500Z,1.23
2023-12-28T05:11:02.386Z,3.17
2023-12-28T05:13:29.280Z,2.25
2023-12-28T05:15:56.278Z,1.90
2023-12-28T05:18:23.406Z,1.40
2023-12-28T05:20:50.387Z,1.95
2023-12-28T05:23:17.279Z,1.77
2023-12-28T05:25:44.217Z,2.22
2023-12-28T05:28:11.249Z,2.88
2023-12-28T05:30:38.814Z,2.50
2023-12-28T05:33:05.981Z,2.63
2023-12-28T05:35:32.895Z,2.30
2023-12-28T05:37:59.982Z,2.97
2023-12-28T05:40:27.079Z,2.38
2023-12-28T05:42:53.986Z,2.28
2023-12-28T05:47:47.852Z,2.15
2023-12-28T05:50:14.835Z,2.47
2023-12-28T05:52:41.719Z,2.50
2023-12-28T06:27:07.924Z,1.42
2023-12-28T06:29:34.848Z,2.35
2023-12-28T07:23:29.758Z,1.88
2023-12-28T07:25:56.613Z,1.15
2023-12-28T07:28:23.492Z,2.50
2023-12-28T07:30:50.549Z,1.85
2023-12-28T07:33:17.746Z,3.05
2023-12-28T07:35:44.682Z,1.90
2023-12-28T07:38:11.582Z,3.30
2023-12-28T07:40:38.769Z,2.92
2023-12-28T07:43:05.873Z,3.38
2023-12-28T07:45:33.333Z,2.85
2023-12-28T07:48:04.939Z,2.92
2023-12-28T07:50:32.199Z,2.22
2023-12-28T07:52:59.129Z,1.98
2023-12-28T07:55:27.266Z,2.60
2023-12-28T07:57:54.236Z,1.48
2023-12-28T08:00:21.260Z,1.98
2023-12-28T08:02:48.172Z,1.52
2023-12-28T08:05:15.142Z,0.82
2023-12-28T08:07:41.995Z,1.77
2023-12-28T08:10:09.233Z,2.15
2023-12-28T08:12:36.148Z,1.90
2023-12-28T08:15:03.168Z,1.75
2023-12-28T08:17:30.058Z,1.88
2023-12-28T08:19:57.064Z,1.90
2023-12-28T08:22:24.026Z,1.63
2023-12-28T08:24:50.975Z,2.13
2023-12-28T08:27:17.914Z,2.17
2023-12-28T08:29:44.866Z,1.98
2023-12-28T08:32:12.538Z,1.08
2023-12-28T08:34:40.137Z,2.10
2023-12-28T08:37:07.702Z,1.85
2023-12-28T08:39:34.913Z,1.90
2023-12-28T08:42:02.323Z,2.33
2023-12-28T08:44:29.300Z,1.70
2023-12-28T08:46:56.293Z,2.30
2023-12-28T08:49:23.745Z,2.65
2023-12-28T08:51:51.688Z,3.28
2023-12-28T08:54:19.026Z,2.60
2023-12-28T08:56:48.130Z,2.80
2023-12-28T08:59:16.597Z,2.05
2023-12-28T09:01:43.537Z,2.10
2023-12-28T09:09:05.051Z,1.25
2023-12-28T09:11:31.993Z,1.35
2023-12-28T09:13:59.263Z,3.25
2023-12-28T09:16:26.211Z,1.23
2023-12-28T09:18:53.184Z,2.42
2023-12-28T09:21:20.314Z,1.92
2023-12-28T09:23:47.305Z,1.83
2023-12-28T09:26:14.343Z,2.08
2023-12-28T09:28:41.962Z,2.22
2023-12-28T09:31:09.100Z,1.58
2023-12-28T09:33:36.314Z,1.85
2023-12-28T09:38:33.487Z,1.95
2023-12-28T09:41:16.360Z,1.88
2023-12-28T09:43:59.242Z,1.35
2023-12-28T09:46:27.908Z,1.85
2023-12-28T09:48:58.251Z,1.63
2023-12-28T09:51:27.016Z,1.92
2023-12-28T09:53:54.560Z,2.38
2023-12-28T09:56:21.984Z,2.38
2023-12-28T09:58:52.261Z,2.00
2023-12-28T10:01:20.183Z,2.13
2023-12-28T10:03:47.302Z,1.63
2023-12-28T10:06:16.507Z,1.50
2023-12-28T10:08:49.175Z,2.53
2023-12-28T10:11:17.426Z,2.33
2023-12-28T10:13:44.855Z,2.00
2023-12-28T10:16:12.892Z,2.28
2023-12-28T10:18:46.710Z,2.78
2023-12-28T10:21:14.090Z,2.33
2023-12-28T10:23:41.259Z,3.20
2023-12-28T10:26:09.807Z,2.78
2023-12-28T10:28:40.940Z,2.38
2023-12-28T10:31:09.334Z,2.00
2023-12-28T10:33:37.729Z,3.10
2023-12-28T10:36:09.957Z,1.83
2023-12-28T10:38:38.903Z,3.58
2023-12-28T10:41:08.827Z,3.38
2023-12-28T10:44:09.549Z,4.40
2023-12-28T10:46:44.445Z,3.85
2023-12-28T10:49:18.100Z,3.25
2023-12-28T10:51:49.778Z,3.88
2023-12-28T10:54:28.541Z,2.92
2023-12-28T10:57:09.517Z,2.80
2023-12-28T10:59:54.862Z,3.10
2023-12-28T11:02:26.380Z,2.75
2023-12-28T11:04:55.406Z,3.88
2023-12-28T11:07:22.725Z,2.17
2023-12-28T11:09:50.704Z,2.60
2023-12-28T11:12:21.590Z,2.38
2023-12-28T11:14:49.820Z,3.28
2023-12-28T11:22:11.857Z,3.45
2023-12-28T11:24:39.271Z,3.58
2023-12-28T11:27:10.150Z,3.78
2023-12-28T11:29:38.386Z,2.72
2023-12-28T11:32:05.720Z,4.00
2023-12-28T11:34:37.224Z,2.92
2023-12-28T11:37:15.591Z,3.22
2023-12-28T11:39:45.798Z,3.38
2023-12-28T11:42:13.391Z,3.80
2023-12-28T11:44:48.243Z,3.90
2023-12-28T11:47:16.555Z,2.47
2023-12-28T11:49:47.287Z,3.25
2023-12-28T11:52:27.370Z,2.92
2023-12-28T11:54:55.449Z,3.85
2023-12-28T11:57:22.804Z,2.92
2023-12-28T12:00:01.082Z,3.65
2023-12-28T12:02:28.199Z,4.70
2023-12-28T12:05:03.154Z,4.28
2023-12-28T12:07:30.873Z,4.43
2023-12-28T12:10:01.527Z,4.80
2023-12-28T12:12:29.166Z,3.80
2023-12-28T12:14:57.788Z,3.10
2023-12-28T12:17:26.734Z,3.65
2023-12-28T12:19:56.777Z,3.33
2023-12-28T12:22:26.314Z,5.70
2023-12-28T12:24:57.259Z,3.08
2023-12-28T12:27:24.110Z,3.33
2023-12-28T12:29:51.045Z,3.97
2023-12-28T12:32:18.471Z,3.87
2023-12-28T12:34:45.498Z,4.25
2023-12-28T12:37:12.651Z,3.03
2023-12-28T12:39:39.677Z,2.85
2023-12-28T12:42:06.943Z,2.90
2023-12-28T12:44:34.240Z,3.10
2023-12-28T12:47:01.243Z,2.83
2023-12-28T12:49:28.523Z,3.15
2023-12-28T12:51:56.566Z,3.78
2023-12-28T12:54:24.121Z,2.80
2023-12-28T12:56:51.950Z,3.63
2023-12-28T12:59:19.186Z,3.47
2023-12-28T13:01:51.824Z,3.15
2023-12-28T13:04:18.997Z,4.18
2023-12-28T13:06:46.394Z,4.07
2023-12-28T13:09:13.512Z,4.80
2023-12-28T13:11:40.621Z,3.83
2023-12-28T13:14:07.558Z,3.38
2023-12-28T13:16:34.455Z,3.65
2023-12-28T13:19:01.483Z,3.10
2023-12-28T13:21:28.579Z,3.78
2023-12-28T13:23:55.458Z,3.33
2023-12-28T13:26:22.436Z,3.55
2023-12-28T13:28:49.397Z,4.15
2023-12-28T13:31:16.594Z,4.28
2023-12-28T13:33:43.769Z,3.03
2023-12-28T13:36:10.756Z,5.00
2023-12-28T13:38:37.612Z,3.78
2023-12-28T13:41:04.965Z,4.20
2023-12-28T13:43:31.918Z,4.18
2023-12-28T13:45:59.265Z,5.35
2023-12-28T13:50:53.341Z,4.43
2023-12-28T13:53:20.225Z,4.53
2023-12-28T13:55:47.069Z,4.93
2023-12-28T13:58:14.057Z,4.72
2023-12-28T14:00:41.642Z,4.57
2023-12-28T14:03:08.815Z,5.25
2023-12-28T14:05:36.893Z,5.20
2023-12-28T14:08:04.774Z,4.72
2023-12-28T14:10:31.832Z,5.60
2023-12-28T14:12:59.094Z,5.72
2023-12-28T14:15:26.295Z,5.13
2023-12-28T14:17:53.429Z,6.32
2023-12-28T14:20:20.520Z,5.47
2023-12-28T14:22:47.686Z,4.38
2023-12-28T14:25:15.308Z,6.32
2023-12-28T14:27:42.625Z,5.78
2023-12-28T14:30:11.716Z,5.28
2023-12-28T14:32:39.237Z,6.03
2023-12-28T14:35:07.251Z,5.35
2023-12-28T14:37:34.349Z,5.22
2023-12-28T14:40:07.369Z,6.78
2023-12-28T14:42:35.159Z,6.38
2023-12-28T14:45:04.988Z,6.68
2023-12-28T14:47:31.986Z,6.43
2023-12-28T14:49:59.103Z,7.97
2023-12-28T14:52:26.145Z,7.72
2023-12-28T14:54:55.283Z,7.15
2023-12-28T14:57:24.059Z,6.97
2023-12-28T14:59:51.595Z,7.63
2023-12-28T15:02:18.655Z,8.07
2023-12-28T15:04:46.184Z,8.70
2023-12-28T15:07:13.267Z,8.05
2023-12-28T15:09:40.156Z,7.97
2023-12-28T15:14:34.472Z,7.68
2023-12-28T15:17:01.654Z,7.05
2023-12-28T15:19:28.891Z,7.47
2023-12-28T15:21:56.166Z,8.20
2023-12-28T15:24:23.475Z,9.60
2023-12-28T15:26:50.431Z,8.38
2023-12-28T15:29:17.297Z,6.30
2023-12-28T15:31:44.406Z,8.35
2023-12-28T15:36:38.383Z,10.73
2023-12-28T15:46:28.056Z,10.10
2023-12-28T15:48:55.214Z,15.02
2023-12-28T15:51:23.125Z,9.93
2023-12-28T15:53:50.130Z,13.18
2023-12-28T15:56:19.612Z,9.68
2023-12-28T15:58:47.204Z,12.85
2023-12-28T16:01:14.510Z,8.02
2023-12-28T16:03:41.666Z,10.63
2023-12-28T16:06:12.226Z,9.10
2023-12-28T16:08:39.246Z,10.40
2023-12-28T16:11:07.052Z,10.25
2023-12-28T16:13:35.384Z,9.93
2023-12-28T16:16:02.910Z,10.93
2023-12-28T16:18:30.500Z,10.07
2023-12-28T16:20:58.044Z,9.98
2023-12-28T16:23:25.386Z,9.35
2023-12-28T16:25:52.370Z,9.55
2023-12-28T16:28:19.529Z,11.40
2023-12-28T16:33:13.471Z,9.25
2023-12-28T16:35:40.405Z,10.38
2023-12-28T16:38:07.287Z,10.98
2023-12-28T16:40:34.132Z,10.38
2023-12-28T16:43:01.069Z,9.68
2023-12-28T16:52:55.257Z,8.65
2023-12-28T16:55:22.259Z,10.20
2023-12-28T16:57:49.527Z,11.25
2023-12-28T17:00:16.771Z,10.52
2023-12-28T17:02:43.679Z,11.02
2023-12-28T17:05:11.735Z,14.02
2023-12-28T17:07:38.903Z,12.75
2023-12-28T17:10:06.493Z,11.43
2023-12-28T17:12:42.689Z,11.32
2023-12-28T17:15:11.003Z,14.88
2023-12-28T17:17:40.638Z,11.20
2023-12-28T17:20:10.119Z,14.18
2023-12-28T17:22:45.188Z,8.70
2023-12-28T17:25:14.848Z,11.23
2023-12-28T17:37:37.161Z,11.70
2023-12-28T17:40:04.667Z,9.48
2023-12-28T17:42:33.161Z,10.13
2023-12-28T17:45:01.591Z,10.95
2023-12-28T17:47:36.152Z,11.57
2023-12-28T17:50:03.937Z,10.48
2023-12-28T17:52:33.590Z,13.50
2023-12-28T17:55:00.637Z,10.68
2023-12-28T17:59:54.450Z,10.13
2023-12-28T18:02:21.419Z,13.43
2023-12-28T18:04:48.597Z,9.63
2023-12-28T18:07:15.609Z,10.43
2023-12-28T18:09:42.717Z,11.02
2023-12-28T18:12:10.664Z,11.30
2023-12-28T18:14:38.720Z,8.60
2023-12-28T18:17:05.614Z,9.70
2023-12-28T18:19:32.789Z,11.25
2023-12-28T18:21:59.867Z,10.18
2023-12-28T18:24:27.208Z,10.20
2023-12-28T18:26:54.197Z,11.18
2023-12-28T18:29:21.099Z,9.88
2023-12-28T18:31:48.289Z,9.32
2023-12-28T18:34:15.447Z,7.43
2023-12-28T18:36:42.679Z,8.30
2023-12-28T18:39:10.877Z,10.32
2023-12-28T18:41:37.802Z,7.82
2023-12-28T18:44:04.741Z,9.18
2023-12-28T18:46:31.597Z,8.55
2023-12-28T18:48:59.699Z,7.53
2023-12-28T18:51:26.741Z,7.80
2023-12-28T18:53:53.673Z,7.90
2023-12-28T18:56:20.553Z,8.77
2023-12-28T18:58:47.543Z,7.13
2023-12-28T19:01:16.177Z,9.15
2023-12-28T19:06:16.689Z,6.68
2023-12-28T19:11:17.130Z,7.88
2023-12-28T19:13:44.432Z,8.05
2023-12-28T19:16:24.991Z,7.05
2023-12-28T19:23:49.885Z,8.68
2023-12-28T19:28:47.266Z,9.07
